Time;durP1;ratioP1;P1;durP2;ratioP2;P2;SDS_P1;SDS_P2;PMS_P1;PMS_P2;Temp;Humidity;BMP_temperature;BMP_pressure;BME280_temperature;BME280_humidity;BME280_pressure;Samples;Min_cycle;Max_cycle;Signal;HPM_P1;HPM_P2
2022/12/16 00:01:14;;;;;;;31.15;11.98;;;-0.40;79.40;;;;;;5116582;28;20024;-75
2022/12/16 00:03:40;;;;;;;24.10;10.63;;;-0.40;79.40;;;;;;5115499;28;20024;-75
2022/12/16 00:06:07;;;;;;;28.00;12.13;;;-0.30;79.20;;;;;;5115433;28;20012;-75
2022/12/16 00:08:36;;;;;;;24.45;11.20;;;-0.30;79.10;;;;;;5115438;28;20028;-75
2022/12/16 00:11:02;;;;;;;29.45;10.88;;;-0.30;79.20;;;;;;5115454;28;20030;-75
2022/12/16 00:13:30;;;;;;;26.20;12.40;;;-0.40;79.70;;;;;;5116330;28;20054;-75
2022/12/16 00:15:56;;;;;;;36.40;12.90;;;-0.40;80.00;;;;;;5115258;28;20028;-75
2022/12/16 00:18:22;;;;;;;25.55;13.13;;;-0.40;80.20;;;;;;5098363;28;20058;-75
2022/12/16 00:20:50;;;;;;;28.38;13.00;;;-0.40;80.30;;;;;;5115051;28;20032;-75
2022/12/16 00:23:16;;;;;;;29.98;13.50;;;-0.40;80.40;;;;;;5116052;28;20112;-75
2022/12/16 00:25:43;;;;;;;31.23;12.73;;;-0.30;80.40;;;;;;5115141;28;20070;-74
2022/12/16 00:28:10;;;;;;;26.25;12.52;;;-0.30;80.40;;;;;;5115078;28;20054;-75
2022/12/16 00:30:36;;;;;;;28.40;12.65;;;-0.20;80.30;;;;;;5098071;28;20032;-75
2022/12/16 00:33:02;;;;;;;34.42;11.98;;;-0.20;80.40;;;;;;5115959;28;20039;-75
2022/12/16 00:35:29;;;;;;;26.98;12.43;;;-0.20;80.30;;;;;;5114857;28;20119;-75
2022/12/16 00:37:55;;;;;;;29.80;12.40;;;-0.10;80.40;;;;;;5115074;28;20028;-75
2022/12/16 00:40:20;;;;;;;25.67;12.50;;;-0.10;80.30;;;;;;5115844;28;20027;-75
2022/12/16 00:42:46;;;;;;;24.25;11.13;;;-0.10;80.30;;;;;;5115770;28;20032;-75
2022/12/16 00:45:12;;;;;;;26.25;11.43;;;-0.10;80.50;;;;;;5115662;28;20039;-75
2022/12/16 00:47:37;;;;;;;22.95;10.40;;;-0.10;80.60;;;;;;5115646;28;20036;-75
2022/12/16 00:50:03;;;;;;;27.38;11.65;;;-0.10;81.30;;;;;;5097838;28;20032;-75
2022/12/16 00:52:29;;;;;;;26.67;12.02;;;-0.20;81.70;;;;;;5114619;28;20032;-75
2022/12/16 00:54:54;;;;;;;22.17;11.82;;;-0.20;81.80;;;;;;5114574;28;20103;-75
2022/12/16 00:57:21;;;;;;;25.65;11.63;;;-0.20;81.50;;;;;;5115268;28;20044;-75
2022/12/16 00:59:47;;;;;;;29.27;12.30;;;-0.10;81.60;;;;;;5115465;28;20048;-75
2022/12/16 01:02:12;;;;;;;30.83;13.30;;;-0.10;81.60;;;;;;5115337;28;20028;-75
2022/12/16 01:04:39;;;;;;;24.58;12.32;;;-0.10;81.70;;;;;;5114328;28;20103;-75
2022/12/16 01:07:05;;;;;;;32.33;12.77;;;0.00;81.50;;;;;;5115395;28;20036;-75
2022/12/16 01:09:30;;;;;;;28.70;12.85;;;0.00;81.70;;;;;;5115158;28;20020;-75
2022/12/16 01:11:56;;;;;;;27.15;12.32;;;0.00;81.70;;;;;;5114325;28;20050;-75
2022/12/16 01:14:22;;;;;;;27.63;12.50;;;0.10;81.80;;;;;;5115165;28;20121;-75
2022/12/16 01:16:47;;;;;;;27.38;12.40;;;0.10;82.70;;;;;;5115105;28;20088;-75
2022/12/16 01:19:13;;;;;;;25.83;12.60;;;0.10;81.80;;;;;;5115042;28;20032;-75
2022/12/16 01:21:39;;;;;;;25.67;11.82;;;0.10;81.80;;;;;;5115043;28;20032;-75
2022/12/16 01:24:05;;;;;;;33.17;12.18;;;0.10;82.00;;;;;;5113848;28;20036;-74
2022/12/16 01:26:31;;;;;;;21.88;10.77;;;0.10;82.00;;;;;;5113900;28;20020;-75
2022/12/16 01:28:57;;;;;;;28.85;11.02;;;0.10;82.00;;;;;;5113907;28;20035;-75
2022/12/16 01:31:23;;;;;;;30.52;12.10;;;0.20;82.10;;;;;;5114833;28;20383;-75
2022/12/16 01:33:49;;;;;;;31.35;13.25;;;0.20;81.80;;;;;;5114090;28;20028;-75
2022/12/16 01:36:15;;;;;;;28.75;10.88;;;0.30;81.80;;;;;;5114723;28;20058;-75
2022/12/16 01:38:43;;;;;;;26.70;11.68;;;0.20;81.80;;;;;;5096717;28;20055;-75
2022/12/16 01:41:10;;;;;;;24.73;10.95;;;0.20;82.70;;;;;;5114616;28;20026;-75
2022/12/16 01:43:37;;;;;;;28.10;12.02;;;0.30;81.90;;;;;;5114505;28;20036;-75
2022/12/16 01:46:24;;;;;;;22.10;10.80;;;0.30;82.10;;;;;;5114712;28;20025;-75
2022/12/16 01:49:05;;;;;;;28.73;10.20;;;0.30;81.80;;;;;;5114569;28;20043;-75
2022/12/16 01:51:38;;;;;;;25.33;10.30;;;0.30;81.70;;;;;;5114501;28;20024;-75
2022/12/16 01:54:25;;;;;;;25.15;9.90;;;0.20;82.10;;;;;;5113547;28;20050;-75
2022/12/16 01:57:03;;;;;;;21.25;10.63;;;0.20;82.30;;;;;;5114237;28;20032;-75
2022/12/16 01:59:33;;;;;;;30.15;11.38;;;0.10;83.00;;;;;;5114453;28;20048;-75
2022/12/16 02:01:58;;;;;;;28.65;11.90;;;0.10;83.40;;;;;;5114265;28;20045;-75
2022/12/16 02:04:24;;;;;;;25.95;11.68;;;0.10;83.40;;;;;;5079564;28;20069;-75
2022/12/16 02:06:50;;;;;;;30.20;13.55;;;0.20;83.40;;;;;;5113258;28;20035;-75
2022/12/16 02:09:16;;;;;;;26.65;11.68;;;0.20;83.30;;;;;;5096194;28;20059;-75
2022/12/16 02:12:00;;;;;;;25.00;13.10;;;0.20;83.30;;;;;;5114106;28;20028;-75
2022/12/16 02:15:10;;;;;;;27.45;11.00;;;0.20;83.30;;;;;;5113043;28;20024;-75
2022/12/16 02:18:10;;;;;;;28.15;12.13;;;0.30;83.50;;;;;;5114031;28;20038;-75
2022/12/16 02:20:36;;;;;;;26.90;10.02;;;0.20;83.50;;;;;;5074525;28;20036;-75
2022/12/16 02:23:05;;;;;;;27.20;12.30;;;0.20;83.90;;;;;;5112800;28;20058;-75
2022/12/16 02:26:04;;;;;;;24.27;10.82;;;0.20;84.00;;;;;;5113871;28;20147;-75
2022/12/16 02:28:52;;;;;;;24.60;11.77;;;0.20;83.90;;;;;;5112800;28;20028;-75
2022/12/16 02:31:32;;;;;;;18.58;10.05;;;0.30;83.90;;;;;;5113878;28;20028;-75
2022/12/16 02:34:07;;;;;;;28.83;12.88;;;0.30;84.20;;;;;;5113779;28;20024;-75
2022/12/16 02:36:44;;;;;;;27.13;12.70;;;0.20;84.70;;;;;;5113940;28;20058;-75
2022/12/16 02:39:16;;;;;;;28.02;11.93;;;0.20;84.60;;;;;;5113726;28;20024;-75
2022/12/16 02:41:52;;;;;;;28.75;12.50;;;0.30;84.70;;;;;;5113712;28;20084;-75
2022/12/16 02:44:19;;;;;;;27.15;12.68;;;0.20;84.70;;;;;;5113611;28;20024;-75
2022/12/16 02:46:54;;;;;;;27.23;12.27;;;0.30;84.70;;;;;;5112574;28;20035;-75
2022/12/16 02:49:19;;;;;;;34.45;12.80;;;0.30;84.60;;;;;;5113570;28;20020;-75
2022/12/16 02:51:45;;;;;;;30.30;13.77;;;0.40;84.60;;;;;;5113660;28;20032;-75
2022/12/16 02:54:12;;;;;;;27.60;13.35;;;0.40;84.50;;;;;;5112517;28;20024;-75
2022/12/16 02:57:15;;;;;;;34.72;12.73;;;0.40;84.50;;;;;;5095456;28;20050;-75
2022/12/16 02:59:52;;;;;;;28.15;13.13;;;0.40;84.40;;;;;;5113521;28;20046;-75
2022/12/16 03:02:23;;;;;;;27.25;13.68;;;0.50;84.40;;;;;;5113516;28;20024;-75
2022/12/16 03:05:04;;;;;;;26.83;12.75;;;0.50;84.30;;;;;;5112335;28;20032;-75
2022/12/16 03:07:35;;;;;;;29.23;12.95;;;0.50;84.30;;;;;;5113506;28;20076;-75
2022/12/16 03:10:05;;;;;;;22.92;10.45;;;0.50;84.40;;;;;;5113449;28;20054;-75
2022/12/16 03:12:32;;;;;;;22.52;10.70;;;0.50;84.30;;;;;;5112315;28;20039;-75
2022/12/16 03:14:58;;;;;;;28.20;12.50;;;0.50;84.40;;;;;;5112480;28;20036;-75
2022/12/16 03:17:27;;;;;;;28.52;12.88;;;0.40;84.60;;;;;;5095486;28;20032;-75
2022/12/16 03:20:12;;;;;;;29.17;12.60;;;0.50;84.70;;;;;;5113339;28;20055;-75
2022/12/16 03:22:43;;;;;;;25.55;12.25;;;0.50;85.00;;;;;;5113307;28;20528;-75
2022/12/16 03:25:09;;;;;;;33.67;13.35;;;0.50;84.90;;;;;;5113182;28;20054;-75
2022/12/16 03:27:48;;;;;;;27.65;13.52;;;0.50;84.90;;;;;;5113021;28;20091;-75
2022/12/16 03:30:23;;;;;;;29.40;13.68;;;0.60;84.80;;;;;;5113386;28;20122;-75
2022/12/16 03:33:14;;;;;;;32.33;13.38;;;0.60;84.70;;;;;;5112321;28;20486;-75
2022/12/16 03:35:55;;;;;;;27.77;13.60;;;0.60;84.50;;;;;;5113221;28;20044;-75
2022/12/16 03:38:23;;;;;;;27.07;13.20;;;0.60;84.40;;;;;;5112201;28;20041;-75
2022/12/16 03:40:50;;;;;;;25.73;13.13;;;0.60;84.30;;;;;;5113078;28;20031;-75
2022/12/16 03:43:16;;;;;;;31.27;13.57;;;0.60;84.40;;;;;;5113026;28;20042;-75
2022/12/16 03:45:44;;;;;;;30.70;12.82;;;0.60;84.30;;;;;;5112121;28;20044;-75
2022/12/16 03:48:11;;;;;;;38.10;13.68;;;0.70;84.40;;;;;;5113052;28;20053;-75
2022/12/16 03:50:38;;;;;;;28.85;11.82;;;0.70;84.40;;;;;;5113014;28;20025;-75
2022/12/16 03:53:05;;;;;;;32.15;13.65;;;0.70;84.50;;;;;;5112043;28;20035;-75
2022/12/16 03:55:31;;;;;;;31.48;13.35;;;0.70;84.50;;;;;;5112415;28;20035;-75
2022/12/16 03:57:57;;;;;;;28.50;12.25;;;0.60;84.60;;;;;;5116570;28;20044;-75
2022/12/16 04:00:24;;;;;;;32.80;13.95;;;0.70;84.90;;;;;;5115689;28;20395;-75
2022/12/16 04:02:50;;;;;;;27.33;12.70;;;0.70;84.80;;;;;;5116592;28;20084;-75
2022/12/16 04:05:16;;;;;;;27.05;13.13;;;0.70;84.70;;;;;;5116445;28;20024;-75
2022/12/16 04:07:42;;;;;;;29.25;13.82;;;0.70;84.70;;;;;;5098437;28;20053;-75
2022/12/16 04:10:09;;;;;;;33.45;14.68;;;0.70;84.70;;;;;;5115356;28;20029;-75
2022/12/16 04:26:28;;;;;;;32.77;12.90;;;0.80;84.50;;;;;;5116350;28;20088;-75
2022/12/16 04:28:55;;;;;;;29.95;12.32;;;0.80;84.60;;;;;;5098139;28;20032;-75
2022/12/16 04:31:21;;;;;;;23.80;12.02;;;0.80;84.60;;;;;;5116119;28;20024;-75
